TimeEDT,TemperatureF,Dew PointF,Humidity,Sea Level PressureIn,VisibilityMPH,Wind Direction,Wind SpeedMPH,Gust SpeedMPH,PrecipitationIn,Events,Conditions,WindDirDegrees,DateUTC
12:52 AM,57.9,48.9,72,29.98,10.0,SW,4.6,-,N/A,,Partly Cloudy,230,2012-10-06 04:52:00
1:52 AM,60.1,50.0,69,29.96,10.0,SW,5.8,-,N/A,,Scattered Clouds,230,2012-10-06 05:52:00
2:52 AM,60.1,51.1,72,29.93,10.0,SW,5.8,-,N/A,,Scattered Clouds,230,2012-10-06 06:52:00
3:52 AM,60.1,51.1,72,29.92,10.0,WSW,5.8,-,N/A,,Clear,250,2012-10-06 07:52:00
4:52 AM,59.0,52.0,78,29.91,10.0,WSW,8.1,-,N/A,,Clear,250,2012-10-06 08:52:00
5:52 AM,59.0,52.0,78,29.91,10.0,WSW,6.9,-,N/A,,Partly Cloudy,250,2012-10-06 09:52:00
6:52 AM,61.0,53.1,75,29.92,10.0,West,9.2,-,N/A,,Overcast,260,2012-10-06 10:52:00
7:52 AM,62.1,53.1,72,29.92,10.0,West,10.4,-,N/A,,Overcast,270,2012-10-06 11:52:00
8:52 AM,61.0,54.0,78,29.94,7.0,West,11.5,-,0.00,Rain,Light Rain,260,2012-10-06 12:52:00
9:52 AM,61.0,55.0,81,29.94,10.0,WNW,8.1,16.1,0.00,,Mostly Cloudy,300,2012-10-06 13:52:00
10:13 AM,60.8,53.6,77,30.01,9.0,WNW,11.5,19.6,N/A,,Overcast,290,2012-10-06 14:13:00
10:43 AM,57.2,55.4,94,30.03,3.0,WNW,11.5,-,N/A,,Overcast,290,2012-10-06 14:43:00
10:46 AM,57.2,53.6,88,30.03,1.0,WNW,11.5,18.4,N/A,,Overcast,300,2012-10-06 14:46:00
10:52 AM,57.0,54.0,89,29.98,0.2,WNW,15.0,21.9,N/A,Fog,Fog,300,2012-10-06 14:52:00
11:01 AM,55.4,53.6,94,30.04,0.2,NW,12.7,20.7,0.00,Fog-Rain,Light Rain,310,2012-10-06 15:01:00
11:08 AM,55.4,51.8,88,30.04,1.5,WNW,11.5,21.9,0.01,Rain,Light Rain,300,2012-10-06 15:08:00
11:11 AM,55.4,51.8,88,30.05,3.0,WNW,10.4,21.9,0.01,Rain,Light Rain,290,2012-10-06 15:11:00
11:52 AM,54.0,50.0,86,30.01,7.0,WNW,10.4,-,0.01,Rain,Light Rain,290,2012-10-06 15:52:00
12:52 PM,52.0,48.9,89,30.04,8.0,West,6.9,-,0.01,,Overcast,280,2012-10-06 16:52:00
1:05 PM,51.8,46.4,82,30.08,10.0,West,9.2,-,N/A,,Overcast,270,2012-10-06 17:05:00
1:52 PM,51.1,46.9,86,30.02,9.0,NW,8.1,-,0.00,,Overcast,310,2012-10-06 17:52:00
2:52 PM,51.1,46.0,83,30.02,10.0,West,10.4,-,N/A,,Overcast,270,2012-10-06 18:52:00
3:19 PM,51.8,46.4,82,30.06,10.0,West,8.1,-,N/A,,Overcast,280,2012-10-06 19:19:00
3:37 PM,51.8,46.4,82,30.06,10.0,WNW,6.9,-,N/A,,Overcast,300,2012-10-06 19:37:00
3:52 PM,51.1,45.0,80,30.01,10.0,NW,9.2,-,N/A,,Overcast,310,2012-10-06 19:52:00
4:19 PM,51.8,44.6,76,30.06,10.0,WNW,9.2,-,N/A,,Overcast,300,2012-10-06 20:19:00
4:52 PM,51.1,43.0,74,30.01,10.0,West,6.9,-,N/A,,Overcast,270,2012-10-06 20:52:00
5:52 PM,51.1,42.1,71,30.01,10.0,Variable,3.5,-,N/A,,Overcast,0,2012-10-06 21:52:00
6:33 PM,48.2,41.0,76,30.07,10.0,West,5.8,-,N/A,,Scattered Clouds,260,2012-10-06 22:33:00
6:52 PM,48.9,41.0,74,30.04,10.0,WNW,3.5,-,N/A,,Partly Cloudy,290,2012-10-06 22:52:00
7:14 PM,48.2,42.8,82,30.09,10.0,Calm,Calm,-,N/A,,Mostly Cloudy,0,2012-10-06 23:14:00
7:37 PM,48.2,42.8,82,30.09,10.0,WSW,3.5,-,N/A,,Overcast,250,2012-10-06 23:37:00
7:47 PM,48.2,42.8,82,30.10,10.0,Calm,Calm,-,N/A,,Overcast,0,2012-10-06 23:47:00
7:52 PM,48.9,43.0,80,30.05,10.0,West,3.5,-,N/A,,Overcast,280,2012-10-06 23:52:00
8:21 PM,48.2,42.8,82,30.11,10.0,West,4.6,-,N/A,,Scattered Clouds,270,2012-10-07 00:21:00
8:52 PM,46.9,42.1,83,30.08,10.0,Calm,Calm,-,N/A,,Partly Cloudy,0,2012-10-07 00:52:00
9:52 PM,48.0,43.0,83,30.07,10.0,Calm,Calm,-,N/A,,Overcast,0,2012-10-07 01:52:00
10:52 PM,46.9,43.0,86,30.06,10.0,Calm,Calm,-,N/A,,Overcast,0,2012-10-07 02:52:00
11:52 PM,46.9,42.1,83,30.06,10.0,Calm,Calm,-,N/A,,Overcast,0,2012-10-07 03:52:00